createdAt,value
2018-09-13T00:03:58.367Z,23.50
2018-09-13T00:08:06.555Z,24.30
2018-09-13T00:12:14.740Z,24.47
2018-09-13T00:16:22.891Z,25.57
2018-09-13T00:20:31.040Z,26.50
2018-09-13T00:24:39.198Z,25.40
2018-09-13T00:28:47.404Z,27.37
2018-09-13T00:32:55.560Z,25.90
2018-09-13T00:37:03.695Z,26.63
2018-09-13T00:41:11.865Z,24.93
2018-09-13T00:45:20.017Z,25.30
2018-09-13T00:49:28.181Z,25.00
2018-09-13T00:53:36.696Z,27.10
2018-09-13T00:57:44.846Z,25.23
2018-09-13T01:01:53.007Z,26.00
2018-09-13T01:06:01.171Z,27.60
2018-09-13T01:10:09.326Z,24.10
2018-09-13T01:14:17.492Z,25.20
2018-09-13T01:18:25.607Z,25.33
2018-09-13T01:22:33.759Z,25.10
2018-09-13T01:26:41.887Z,25.60
2018-09-13T01:30:50.043Z,23.67
2018-09-13T01:34:58.200Z,23.67
2018-09-13T01:39:07.523Z,24.07
2018-09-13T01:43:15.663Z,25.50
2018-09-13T01:47:23.799Z,22.70
2018-09-13T01:51:31.955Z,23.30
2018-09-13T01:55:40.107Z,24.40
2018-09-13T01:59:48.268Z,23.93
2018-09-13T02:03:56.400Z,23.80
2018-09-13T02:08:04.568Z,24.80
2018-09-13T02:12:12.692Z,23.57
2018-09-13T02:16:20.918Z,24.03
2018-09-13T02:20:29.051Z,26.60
2018-09-13T02:24:37.183Z,24.57
2018-09-13T02:28:45.304Z,23.43
2018-09-13T02:32:53.432Z,22.57
2018-09-13T02:37:01.536Z,22.40
2018-09-13T02:41:09.655Z,23.80
2018-09-13T02:45:17.779Z,22.73
2018-09-13T02:49:25.908Z,19.37
2018-09-13T02:53:34.093Z,21.37
2018-09-13T02:57:42.224Z,20.93
2018-09-13T03:01:50.345Z,20.50
2018-09-13T03:05:58.476Z,20.80
2018-09-13T03:10:06.643Z,23.17
2018-09-13T03:14:14.789Z,20.03
2018-09-13T03:18:22.967Z,19.90
2018-09-13T03:22:31.188Z,18.93
2018-09-13T03:26:39.344Z,22.77
2018-09-13T03:30:47.541Z,20.70
2018-09-13T03:34:55.675Z,20.07
2018-09-13T03:39:05.819Z,17.63
2018-09-13T03:43:13.948Z,20.13
2018-09-13T03:47:22.099Z,19.40
2018-09-13T03:51:30.307Z,19.97
2018-09-13T03:55:38.446Z,19.67
2018-09-13T03:59:46.591Z,20.13
2018-09-13T04:03:54.703Z,18.13
2018-09-13T04:08:02.829Z,18.07
2018-09-13T04:12:10.961Z,19.43
2018-09-13T04:16:19.078Z,18.60
2018-09-13T04:20:27.218Z,19.83
2018-09-13T04:24:35.327Z,19.00
2018-09-13T04:28:43.470Z,19.90
2018-09-13T04:32:51.567Z,21.20
2018-09-13T04:36:59.679Z,19.03
2018-09-13T04:41:07.864Z,19.37
2018-09-13T04:45:16.062Z,15.53
2018-09-13T04:49:24.179Z,16.50
2018-09-13T04:53:33.037Z,19.70
2018-09-13T04:57:41.147Z,17.83
2018-09-13T05:01:49.255Z,17.97
2018-09-13T05:05:57.394Z,17.70
2018-09-13T05:10:05.696Z,17.50
2018-09-13T05:14:13.819Z,17.77
2018-09-13T05:18:21.954Z,16.20
2018-09-13T05:22:30.085Z,18.03
2018-09-13T05:26:38.195Z,17.70
2018-09-13T05:30:46.307Z,18.57
2018-09-13T05:34:54.596Z,16.93
2018-09-13T05:39:03.116Z,16.55
2018-09-13T05:43:11.244Z,16.60
2018-09-13T05:47:19.367Z,16.90
2018-09-13T05:51:27.521Z,18.07
2018-09-13T05:55:35.659Z,18.70
2018-09-13T05:59:43.844Z,17.33
2018-09-13T06:03:51.959Z,17.42
2018-09-13T06:08:00.103Z,16.97
2018-09-13T06:12:08.190Z,18.27
2018-09-13T06:16:16.313Z,17.17
2018-09-13T06:20:24.423Z,15.40
2018-09-13T06:24:32.572Z,16.43
2018-09-13T06:28:40.697Z,15.47
2018-09-13T06:32:48.836Z,16.43
2018-09-13T06:36:56.943Z,18.30
2018-09-13T06:41:05.085Z,17.57
2018-09-13T06:45:13.207Z,17.90
2018-09-13T06:49:21.340Z,17.60
2018-09-13T06:53:29.513Z,16.97
2018-09-13T06:57:37.625Z,17.30
2018-09-13T07:01:45.744Z,18.17
2018-09-13T07:05:53.867Z,18.05
2018-09-13T07:10:02.016Z,18.87
2018-09-13T07:14:10.156Z,18.60
2018-09-13T07:18:18.084Z,14.90
2018-09-13T07:22:26.226Z,16.07
2018-09-13T07:26:34.360Z,16.70
2018-09-13T07:30:42.518Z,16.00
2018-09-13T07:34:50.658Z,17.67
2018-09-13T07:38:59.711Z,17.50
2018-09-13T07:43:07.866Z,18.77
2018-09-13T07:47:16.007Z,18.20
2018-09-13T07:51:24.155Z,17.73
2018-09-13T07:55:32.576Z,17.80
2018-09-13T07:59:40.752Z,19.00
2018-09-13T08:03:48.936Z,16.80
2018-09-13T08:07:57.076Z,16.10
2018-09-13T08:12:05.373Z,19.03
2018-09-13T08:16:13.410Z,17.50
2018-09-13T08:20:21.557Z,16.23
2018-09-13T08:24:29.691Z,15.30
2018-09-13T08:28:37.841Z,16.90
2018-09-13T08:32:45.981Z,17.10
2018-09-13T08:36:54.176Z,17.80
2018-09-13T08:41:02.255Z,18.00
2018-09-13T08:45:10.401Z,17.37
2018-09-13T08:49:18.527Z,15.87
2018-09-13T08:53:26.675Z,17.97
2018-09-13T08:57:34.848Z,18.97
2018-09-13T09:01:43.004Z,17.87
2018-09-13T09:05:51.150Z,17.20
2018-09-13T09:09:59.297Z,15.20
2018-09-13T09:14:07.430Z,17.33
2018-09-13T09:18:15.583Z,18.40
2018-09-13T09:22:23.745Z,17.80
2018-09-13T09:26:31.887Z,18.17
2018-09-13T09:30:40.031Z,16.67
2018-09-13T09:34:48.281Z,15.60
2018-09-13T09:38:56.403Z,15.00
2018-09-13T09:43:04.544Z,13.00
2018-09-13T09:47:12.703Z,14.03
2018-09-13T09:51:20.834Z,14.00
2018-09-13T09:55:28.991Z,12.20
2018-09-13T09:59:37.193Z,12.43
2018-09-13T10:08:18.692Z,13.30
2018-09-13T10:12:26.864Z,12.00
2018-09-13T10:16:40.380Z,11.05
2018-09-13T10:20:53.904Z,12.90
2018-09-13T10:25:07.532Z,14.60
2018-09-13T10:29:20.952Z,14.00
2018-09-13T10:33:34.764Z,14.93
2018-09-13T10:37:48.412Z,14.43
2018-09-13T10:42:02.088Z,16.03
2018-09-13T10:46:15.817Z,14.90
2018-09-13T10:50:24.403Z,14.73
2018-09-13T10:54:39.413Z,15.93
2018-09-13T10:58:47.548Z,13.80
2018-09-13T11:02:55.697Z,17.20
2018-09-13T11:07:03.881Z,16.80
2018-09-13T11:11:12.307Z,15.83
2018-09-13T11:15:25.656Z,15.10
2018-09-13T11:19:33.817Z,13.60
2018-09-13T11:23:41.960Z,13.47
2018-09-13T11:27:50.117Z,12.77
2018-09-13T11:31:58.273Z,11.60
2018-09-13T11:36:06.428Z,10.50
2018-09-13T11:40:15.243Z,11.90
2018-09-13T11:44:23.370Z,51.33
2018-09-13T11:48:31.578Z,20.20
2018-09-13T11:52:39.753Z,20.30
2018-09-13T11:56:47.917Z,14.57
2018-09-13T12:00:56.144Z,14.13
2018-09-13T12:05:04.421Z,12.97
2018-09-13T12:09:14.200Z,11.27
2018-09-13T12:13:22.350Z,15.17
2018-09-13T12:17:30.495Z,16.10
2018-09-13T12:21:38.658Z,14.13
2018-09-13T12:25:46.881Z,10.77
2018-09-13T12:29:55.057Z,10.30
2018-09-13T12:34:03.212Z,8.87
2018-09-13T12:38:11.373Z,9.27
2018-09-13T12:42:19.525Z,8.00
2018-09-13T12:46:27.686Z,8.83
2018-09-13T12:50:35.854Z,7.90
2018-09-13T12:54:43.992Z,8.90
2018-09-13T12:58:52.146Z,8.03
2018-09-13T13:03:00.080Z,7.90
2018-09-13T13:07:08.240Z,8.00
2018-09-13T13:11:16.396Z,7.50
2018-09-13T13:15:24.536Z,6.87
2018-09-13T13:19:32.700Z,6.50
2018-09-13T13:23:40.854Z,6.77
2018-09-13T13:27:49.046Z,6.27
2018-09-13T13:31:57.541Z,5.30
2018-09-13T13:36:05.699Z,6.40
2018-09-13T13:40:13.832Z,7.13
2018-09-13T13:44:21.989Z,7.00
2018-09-13T13:48:30.161Z,8.07
2018-09-13T13:52:38.329Z,8.40
2018-09-13T13:56:46.479Z,9.27
2018-09-13T14:00:54.648Z,8.27
2018-09-13T14:05:02.805Z,8.60
2018-09-13T14:09:13.036Z,9.13
2018-09-13T14:13:21.199Z,10.10
2018-09-13T14:17:29.349Z,9.90
2018-09-13T14:21:37.505Z,10.73
2018-09-13T14:25:45.691Z,11.80
2018-09-13T14:29:53.849Z,14.17
2018-09-13T14:34:01.985Z,14.40
2018-09-13T14:38:10.140Z,15.93
2018-09-13T14:42:18.292Z,15.03
2018-09-13T14:46:26.464Z,15.60
2018-09-13T14:50:34.601Z,16.73
2018-09-13T14:54:42.764Z,17.27
2018-09-13T14:58:50.683Z,17.30
2018-09-13T15:02:58.845Z,19.30
2018-09-13T15:07:06.990Z,18.63
2018-09-13T15:11:15.133Z,18.43
2018-09-13T15:15:23.340Z,19.60
2018-09-13T15:19:31.581Z,21.63
2018-09-13T15:23:39.768Z,21.17
2018-09-13T15:27:47.920Z,19.67
2018-09-13T15:31:56.116Z,21.12
2018-09-13T15:36:04.032Z,21.27
2018-09-13T15:40:11.944Z,21.80
2018-09-13T15:44:19.860Z,22.67
2018-09-13T15:48:28.008Z,24.03
2018-09-13T15:52:36.145Z,23.30
2018-09-13T15:56:44.296Z,24.10
2018-09-13T16:00:52.431Z,24.27
2018-09-13T16:05:00.585Z,24.07
2018-09-13T16:09:09.520Z,25.50
2018-09-13T16:13:17.685Z,25.17
2018-09-13T16:17:25.936Z,26.00
2018-09-13T16:21:34.086Z,26.10
2018-09-13T16:25:42.772Z,129.43
2018-09-13T16:29:50.926Z,41.13
2018-09-13T16:33:59.129Z,36.53
2018-09-13T16:38:12.788Z,29.43
2018-09-13T16:42:26.319Z,27.10
2018-09-13T16:46:39.899Z,27.67
2018-09-13T16:50:48.060Z,26.40
2018-09-13T16:54:56.242Z,30.27
2018-09-13T16:59:04.609Z,30.00
2018-09-13T17:03:12.875Z,28.73
2018-09-13T17:07:21.012Z,27.07
2018-09-13T17:11:29.148Z,29.90
2018-09-13T17:15:37.299Z,30.50
2018-09-13T17:19:45.437Z,28.10
2018-09-13T17:23:53.576Z,29.57
2018-09-13T17:28:01.852Z,29.20
2018-09-13T17:32:10.029Z,30.27
2018-09-13T17:36:18.344Z,29.10
2018-09-13T17:40:26.544Z,27.53
2018-09-13T17:44:34.724Z,30.13
2018-09-13T17:48:42.913Z,27.97
2018-09-13T17:52:51.061Z,30.37
2018-09-13T17:56:59.635Z,31.40
2018-09-13T18:01:07.809Z,30.30
2018-09-13T18:05:15.988Z,29.80
2018-09-13T18:09:24.278Z,30.47
2018-09-13T18:13:32.476Z,29.60
2018-09-13T18:17:40.701Z,28.90
2018-09-13T18:21:48.946Z,30.30
2018-09-13T18:25:57.125Z,28.57
2018-09-13T18:30:05.428Z,27.33
2018-09-13T18:34:13.355Z,30.60
2018-09-13T18:38:21.509Z,29.10
2018-09-13T18:42:29.717Z,31.03
2018-09-13T18:46:37.951Z,28.73
2018-09-13T18:50:46.137Z,30.90
2018-09-13T18:54:54.314Z,29.10
2018-09-13T18:59:02.545Z,29.60
2018-09-13T19:03:10.716Z,29.30
2018-09-13T19:07:18.859Z,48.20
2018-09-13T19:11:27.045Z,29.10
2018-09-13T19:15:35.189Z,31.23
2018-09-13T19:19:43.484Z,31.00
2018-09-13T19:23:51.882Z,27.27
2018-09-13T19:28:00.212Z,27.90
2018-09-13T19:32:08.421Z,28.77
2018-09-13T19:36:16.741Z,28.23
2018-09-13T19:40:25.433Z,26.30
2018-09-13T19:44:33.591Z,27.30
2018-09-13T19:48:41.807Z,27.20
2018-09-13T19:52:50.126Z,25.43
2018-09-13T19:56:58.333Z,26.67
2018-09-13T20:01:13.285Z,27.83
2018-09-13T20:05:21.652Z,28.70
2018-09-13T20:09:29.832Z,26.80
2018-09-13T20:13:37.984Z,27.00
2018-09-13T20:17:46.149Z,25.10
2018-09-13T20:21:54.344Z,26.73
2018-09-13T20:26:02.494Z,32.50
2018-09-13T20:30:10.623Z,30.90
2018-09-13T20:34:18.753Z,31.10
2018-09-13T20:38:26.891Z,32.10
2018-09-13T20:42:35.090Z,37.03
2018-09-13T20:46:43.180Z,44.73
2018-09-13T20:50:51.244Z,40.77
2018-09-13T20:54:59.415Z,41.17
2018-09-13T20:59:07.580Z,37.83
2018-09-13T21:03:15.743Z,73.63
2018-09-13T21:07:23.906Z,49.83
2018-09-13T21:11:32.052Z,71.17
2018-09-13T21:15:40.216Z,32.50
2018-09-13T21:19:48.362Z,49.20
2018-09-13T21:23:56.674Z,65.00
2018-09-13T21:28:04.838Z,48.10
2018-09-13T21:32:13.000Z,28.73
2018-09-13T21:36:21.159Z,64.50
2018-09-13T21:40:29.328Z,40.00
2018-09-13T21:44:37.481Z,52.57
2018-09-13T21:48:45.764Z,46.20
2018-09-13T21:52:53.925Z,25.23
2018-09-13T21:57:02.104Z,25.83
2018-09-13T22:01:10.271Z,24.83
2018-09-13T22:05:18.429Z,24.30
2018-09-13T22:09:26.565Z,24.60
2018-09-13T22:13:34.709Z,24.83
2018-09-13T22:17:42.858Z,24.60
2018-09-13T22:21:51.008Z,25.00
2018-09-13T22:25:59.155Z,24.00
2018-09-13T22:30:07.425Z,24.30
2018-09-13T22:34:15.564Z,24.50
2018-09-13T22:38:23.712Z,25.50
2018-09-13T22:42:31.888Z,26.23
2018-09-13T22:46:40.036Z,23.40
2018-09-13T22:50:48.316Z,23.27
2018-09-13T22:54:56.455Z,22.50
2018-09-13T22:59:09.097Z,20.60
2018-09-13T23:03:17.256Z,20.60
2018-09-13T23:07:25.397Z,18.50
2018-09-13T23:11:33.545Z,21.47
2018-09-13T23:15:41.667Z,19.87
2018-09-13T23:19:49.812Z,21.43
2018-09-13T23:23:58.088Z,21.10
2018-09-13T23:28:06.521Z,20.07
2018-09-13T23:32:14.667Z,20.70
2018-09-13T23:36:23.052Z,22.17
2018-09-13T23:40:31.357Z,20.60
2018-09-13T23:44:39.368Z,20.83
2018-09-13T23:48:47.518Z,20.17
2018-09-13T23:52:55.676Z,20.00
2018-09-13T23:57:03.839Z,19.90
